sensor_id;sensor_type;location;lat;lon;timestamp;P1;durP1;ratioP1;P2;durP2;ratioP2
8100;SDS011;4093;53.470;9.832;2023-04-24T00:00:01;9.33;;;8.43;;
8100;SDS011;4093;53.470;9.832;2023-04-24T00:02:31;10.53;;;8.60;;
8100;SDS011;4093;53.470;9.832;2023-04-24T00:05:01;10.10;;;8.27;;
8100;SDS011;4093;53.470;9.832;2023-04-24T00:07:30;9.00;;;8.10;;
8100;SDS011;4093;53.470;9.832;2023-04-24T00:09:58;9.60;;;7.90;;
8100;SDS011;4093;53.470;9.832;2023-04-24T00:12:26;8.40;;;7.60;;
8100;SDS011;4093;53.470;9.832;2023-04-24T00:14:54;9.10;;;8.20;;
8100;SDS011;4093;53.470;9.832;2023-04-24T00:17:21;9.40;;;7.07;;
8100;SDS011;4093;53.470;9.832;2023-04-24T00:19:49;9.07;;;8.17;;
8100;SDS011;4093;53.470;9.832;2023-04-24T00:22:17;9.53;;;8.13;;
8100;SDS011;4093;53.470;9.832;2023-04-24T00:24:48;9.67;;;8.77;;
8100;SDS011;4093;53.470;9.832;2023-04-24T00:27:15;9.57;;;8.57;;
8100;SDS011;4093;53.470;9.832;2023-04-24T00:29:43;10.57;;;8.50;;
8100;SDS011;4093;53.470;9.832;2023-04-24T00:32:11;9.23;;;8.33;;
8100;SDS011;4093;53.470;9.832;2023-04-24T00:34:39;8.87;;;7.83;;
8100;SDS011;4093;53.470;9.832;2023-04-24T00:37:06;8.50;;;7.70;;
8100;SDS011;4093;53.470;9.832;2023-04-24T00:39:34;8.13;;;7.33;;
8100;SDS011;4093;53.470;9.832;2023-04-24T00:42:03;8.30;;;7.50;;
8100;SDS011;4093;53.470;9.832;2023-04-24T00:44:32;8.47;;;7.60;;
8100;SDS011;4093;53.470;9.832;2023-04-24T00:47:00;7.73;;;6.67;;
8100;SDS011;4093;53.470;9.832;2023-04-24T00:49:28;6.90;;;6.30;;
8100;SDS011;4093;53.470;9.832;2023-04-24T00:51:56;6.50;;;5.90;;
8100;SDS011;4093;53.470;9.832;2023-04-24T00:54:25;5.73;;;5.23;;
8100;SDS011;4093;53.470;9.832;2023-04-24T00:56:53;6.10;;;5.60;;
8100;SDS011;4093;53.470;9.832;2023-04-24T00:59:22;6.20;;;5.60;;
8100;SDS011;4093;53.470;9.832;2023-04-24T01:01:50;6.03;;;5.47;;
8100;SDS011;4093;53.470;9.832;2023-04-24T01:04:18;5.53;;;5.03;;
8100;SDS011;4093;53.470;9.832;2023-04-24T01:06:47;5.23;;;4.73;;
8100;SDS011;4093;53.470;9.832;2023-04-24T01:09:18;5.83;;;5.27;;
8100;SDS011;4093;53.470;9.832;2023-04-24T01:11:47;6.27;;;4.87;;
8100;SDS011;4093;53.470;9.832;2023-04-24T01:14:15;5.27;;;4.83;;
8100;SDS011;4093;53.470;9.832;2023-04-24T01:16:44;6.00;;;5.23;;
8100;SDS011;4093;53.470;9.832;2023-04-24T01:19:12;6.37;;;5.10;;
8100;SDS011;4093;53.470;9.832;2023-04-24T01:21:42;5.80;;;5.30;;
8100;SDS011;4093;53.470;9.832;2023-04-24T01:24:12;6.53;;;5.10;;
8100;SDS011;4093;53.470;9.832;2023-04-24T01:26:40;5.63;;;5.13;;
8100;SDS011;4093;53.470;9.832;2023-04-24T01:29:08;5.17;;;4.60;;
8100;SDS011;4093;53.470;9.832;2023-04-24T01:31:36;5.17;;;4.67;;
8100;SDS011;4093;53.470;9.832;2023-04-24T01:34:04;4.87;;;4.40;;
8100;SDS011;4093;53.470;9.832;2023-04-24T01:36:32;5.23;;;4.67;;
8100;SDS011;4093;53.470;9.832;2023-04-24T01:39:02;4.67;;;4.27;;
8100;SDS011;4093;53.470;9.832;2023-04-24T01:41:31;4.83;;;4.37;;
8100;SDS011;4093;53.470;9.832;2023-04-24T01:43:59;4.80;;;4.40;;
8100;SDS011;4093;53.470;9.832;2023-04-24T01:46:27;4.53;;;4.13;;
8100;SDS011;4093;53.470;9.832;2023-04-24T01:48:57;5.93;;;4.00;;
8100;SDS011;4093;53.470;9.832;2023-04-24T01:51:27;4.50;;;4.10;;
8100;SDS011;4093;53.470;9.832;2023-04-24T01:53:55;4.10;;;3.80;;
8100;SDS011;4093;53.470;9.832;2023-04-24T01:56:22;5.30;;;3.63;;
8100;SDS011;4093;53.470;9.832;2023-04-24T01:58:53;4.07;;;3.73;;
8100;SDS011;4093;53.470;9.832;2023-04-24T02:01:22;4.53;;;3.70;;
8100;SDS011;4093;53.470;9.832;2023-04-24T02:03:51;3.80;;;3.40;;
8100;SDS011;4093;53.470;9.832;2023-04-24T02:06:19;4.23;;;3.70;;
8100;SDS011;4093;53.470;9.832;2023-04-24T02:08:46;3.97;;;3.67;;
8100;SDS011;4093;53.470;9.832;2023-04-24T02:11:14;4.97;;;3.67;;
8100;SDS011;4093;53.470;9.832;2023-04-24T02:13:42;4.77;;;3.63;;
8100;SDS011;4093;53.470;9.832;2023-04-24T02:16:11;6.47;;;4.17;;
8100;SDS011;4093;53.470;9.832;2023-04-24T02:18:38;4.10;;;3.80;;
8100;SDS011;4093;53.470;9.832;2023-04-24T02:21:06;4.00;;;3.70;;
8100;SDS011;4093;53.470;9.832;2023-04-24T02:23:34;4.30;;;3.90;;
8100;SDS011;4093;53.470;9.832;2023-04-24T02:26:02;7.43;;;3.93;;
8100;SDS011;4093;53.470;9.832;2023-04-24T02:28:29;3.93;;;3.53;;
8100;SDS011;4093;53.470;9.832;2023-04-24T02:30:57;3.73;;;3.43;;
8100;SDS011;4093;53.470;9.832;2023-04-24T02:33:26;4.57;;;4.17;;
8100;SDS011;4093;53.470;9.832;2023-04-24T02:35:53;4.40;;;4.00;;
8100;SDS011;4093;53.470;9.832;2023-04-24T02:38:21;5.43;;;4.17;;
8100;SDS011;4093;53.470;9.832;2023-04-24T02:40:49;4.87;;;4.23;;
8100;SDS011;4093;53.470;9.832;2023-04-24T02:43:17;4.67;;;3.73;;
8100;SDS011;4093;53.470;9.832;2023-04-24T02:45:45;4.43;;;4.03;;
8100;SDS011;4093;53.470;9.832;2023-04-24T02:48:12;3.90;;;3.53;;
8100;SDS011;4093;53.470;9.832;2023-04-24T02:50:42;4.50;;;4.10;;
8100;SDS011;4093;53.470;9.832;2023-04-24T02:53:09;3.50;;;3.20;;
8100;SDS011;4093;53.470;9.832;2023-04-24T02:55:37;4.00;;;3.60;;
8100;SDS011;4093;53.470;9.832;2023-04-24T02:58:04;3.80;;;3.37;;
8100;SDS011;4093;53.470;9.832;2023-04-24T03:00:33;3.57;;;3.27;;
8100;SDS011;4093;53.470;9.832;2023-04-24T03:03:00;3.67;;;3.37;;
8100;SDS011;4093;53.470;9.832;2023-04-24T03:05:29;3.73;;;3.43;;
8100;SDS011;4093;53.470;9.832;2023-04-24T03:07:58;3.20;;;3.00;;
8100;SDS011;4093;53.470;9.832;2023-04-24T03:10:26;3.90;;;3.60;;
8100;SDS011;4093;53.470;9.832;2023-04-24T03:12:54;3.60;;;3.00;;
8100;SDS011;4093;53.470;9.832;2023-04-24T03:15:21;4.00;;;3.33;;
8100;SDS011;4093;53.470;9.832;2023-04-24T03:17:49;3.43;;;3.13;;
8100;SDS011;4093;53.470;9.832;2023-04-24T03:20:19;3.97;;;3.50;;
8100;SDS011;4093;53.470;9.832;2023-04-24T03:22:46;3.37;;;3.10;;
8100;SDS011;4093;53.470;9.832;2023-04-24T03:25:15;3.40;;;3.10;;
8100;SDS011;4093;53.470;9.832;2023-04-24T03:27:43;3.30;;;3.00;;
8100;SDS011;4093;53.470;9.832;2023-04-24T03:30:11;3.77;;;3.10;;
8100;SDS011;4093;53.470;9.832;2023-04-24T03:32:39;4.63;;;3.27;;
8100;SDS011;4093;53.470;9.832;2023-04-24T03:35:07;3.37;;;3.07;;
8100;SDS011;4093;53.470;9.832;2023-04-24T03:37:35;4.53;;;3.13;;
8100;SDS011;4093;53.470;9.832;2023-04-24T03:40:03;3.33;;;3.13;;
8100;SDS011;4093;53.470;9.832;2023-04-24T03:42:33;3.67;;;3.37;;
8100;SDS011;4093;53.470;9.832;2023-04-24T03:45:04;3.27;;;2.97;;
8100;SDS011;4093;53.470;9.832;2023-04-24T03:47:33;4.03;;;3.10;;
8100;SDS011;4093;53.470;9.832;2023-04-24T03:50:01;3.50;;;3.20;;
8100;SDS011;4093;53.470;9.832;2023-04-24T03:52:28;3.10;;;2.90;;
8100;SDS011;4093;53.470;9.832;2023-04-24T03:54:56;4.17;;;3.10;;
8100;SDS011;4093;53.470;9.832;2023-04-24T03:57:24;3.40;;;3.10;;
8100;SDS011;4093;53.470;9.832;2023-04-24T03:59:53;3.30;;;3.00;;
8100;SDS011;4093;53.470;9.832;2023-04-24T04:02:21;3.13;;;2.90;;
8100;SDS011;4093;53.470;9.832;2023-04-24T04:04:49;3.33;;;3.03;;
8100;SDS011;4093;53.470;9.832;2023-04-24T04:07:16;3.20;;;2.90;;
8100;SDS011;4093;53.470;9.832;2023-04-24T04:09:44;3.37;;;3.10;;
8100;SDS011;4093;53.470;9.832;2023-04-24T04:12:12;3.20;;;2.90;;
8100;SDS011;4093;53.470;9.832;2023-04-24T04:14:39;3.20;;;2.90;;
8100;SDS011;4093;53.470;9.832;2023-04-24T04:17:08;2.97;;;2.77;;
8100;SDS011;4093;53.470;9.832;2023-04-24T04:19:36;3.27;;;2.90;;
8100;SDS011;4093;53.470;9.832;2023-04-24T04:22:04;4.87;;;3.33;;
8100;SDS011;4093;53.470;9.832;2023-04-24T04:24:34;5.47;;;3.00;;
8100;SDS011;4093;53.470;9.832;2023-04-24T04:27:04;3.13;;;2.90;;
8100;SDS011;4093;53.470;9.832;2023-04-24T04:29:32;3.00;;;2.80;;
8100;SDS011;4093;53.470;9.832;2023-04-24T04:32:00;5.03;;;3.10;;
8100;SDS011;4093;53.470;9.832;2023-04-24T04:34:30;3.00;;;2.80;;
8100;SDS011;4093;53.470;9.832;2023-04-24T04:36:57;3.07;;;2.80;;
8100;SDS011;4093;53.470;9.832;2023-04-24T04:39:27;2.97;;;2.77;;
8100;SDS011;4093;53.470;9.832;2023-04-24T04:41:55;2.87;;;2.67;;
8100;SDS011;4093;53.470;9.832;2023-04-24T04:44:24;3.20;;;3.00;;
8100;SDS011;4093;53.470;9.832;2023-04-24T04:46:55;2.60;;;2.40;;
8100;SDS011;4093;53.470;9.832;2023-04-24T04:49:24;2.53;;;2.37;;
8100;SDS011;4093;53.470;9.832;2023-04-24T04:51:55;2.87;;;2.67;;
8100;SDS011;4093;53.470;9.832;2023-04-24T04:54:23;2.90;;;2.70;;
8100;SDS011;4093;53.470;9.832;2023-04-24T04:56:51;3.13;;;2.50;;
8100;SDS011;4093;53.470;9.832;2023-04-24T04:59:19;2.93;;;2.63;;
8100;SDS011;4093;53.470;9.832;2023-04-24T05:01:46;2.83;;;2.40;;
8100;SDS011;4093;53.470;9.832;2023-04-24T05:04:14;2.80;;;2.50;;
8100;SDS011;4093;53.470;9.832;2023-04-24T05:06:42;2.63;;;2.40;;
8100;SDS011;4093;53.470;9.832;2023-04-24T05:09:11;2.40;;;2.30;;
8100;SDS011;4093;53.470;9.832;2023-04-24T05:11:39;2.67;;;2.10;;
8100;SDS011;4093;53.470;9.832;2023-04-24T05:14:07;2.40;;;2.20;;
8100;SDS011;4093;53.470;9.832;2023-04-24T05:16:34;3.13;;;2.00;;
8100;SDS011;4093;53.470;9.832;2023-04-24T05:19:03;2.00;;;1.90;;
8100;SDS011;4093;53.470;9.832;2023-04-24T05:21:31;2.00;;;1.90;;
8100;SDS011;4093;53.470;9.832;2023-04-24T05:23:58;4.23;;;1.87;;
8100;SDS011;4093;53.470;9.832;2023-04-24T05:26:27;2.47;;;2.10;;
8100;SDS011;4093;53.470;9.832;2023-04-24T05:28:55;2.20;;;2.00;;
8100;SDS011;4093;53.470;9.832;2023-04-24T05:31:23;2.63;;;1.63;;
8100;SDS011;4093;53.470;9.832;2023-04-24T05:33:51;1.93;;;1.70;;
8100;SDS011;4093;53.470;9.832;2023-04-24T05:36:19;1.80;;;1.70;;
8100;SDS011;4093;53.470;9.832;2023-04-24T05:38:47;1.90;;;1.70;;
8100;SDS011;4093;53.470;9.832;2023-04-24T05:41:15;1.90;;;1.70;;
8100;SDS011;4093;53.470;9.832;2023-04-24T05:43:44;5.10;;;2.23;;
8100;SDS011;4093;53.470;9.832;2023-04-24T05:46:11;2.20;;;2.00;;
8100;SDS011;4093;53.470;9.832;2023-04-24T05:48:39;2.33;;;2.00;;
8100;SDS011;4093;53.470;9.832;2023-04-24T05:51:07;1.90;;;1.80;;
8100;SDS011;4093;53.470;9.832;2023-04-24T05:53:36;2.10;;;2.00;;
8100;SDS011;4093;53.470;9.832;2023-04-24T05:56:04;2.17;;;2.03;;
8100;SDS011;4093;53.470;9.832;2023-04-24T05:58:32;3.87;;;2.00;;
8100;SDS011;4093;53.470;9.832;2023-04-24T06:01:01;2.43;;;2.10;;
8100;SDS011;4093;53.470;9.832;2023-04-24T06:03:28;1.95;;;1.85;;
8100;SDS011;4093;53.470;9.832;2023-04-24T06:05:56;2.92;;;1.88;;
8100;SDS011;4093;53.470;9.832;2023-04-24T06:08:24;2.17;;;1.98;;
8100;SDS011;4093;53.470;9.832;2023-04-24T06:10:52;2.63;;;1.58;;
8100;SDS011;4093;53.470;9.832;2023-04-24T06:13:19;3.40;;;1.90;;
8100;SDS011;4093;53.470;9.832;2023-04-24T06:15:47;3.47;;;1.80;;
8100;SDS011;4093;53.470;9.832;2023-04-24T06:18:16;2.60;;;1.90;;
8100;SDS011;4093;53.470;9.832;2023-04-24T06:20:44;2.15;;;1.80;;
8100;SDS011;4093;53.470;9.832;2023-04-24T06:23:12;3.42;;;2.20;;
8100;SDS011;4093;53.470;9.832;2023-04-24T06:25:40;2.63;;;1.90;;
8100;SDS011;4093;53.470;9.832;2023-04-24T06:28:07;2.13;;;1.90;;
8100;SDS011;4093;53.470;9.832;2023-04-24T06:30:35;2.30;;;2.10;;
8100;SDS011;4093;53.470;9.832;2023-04-24T06:33:03;2.00;;;1.90;;
8100;SDS011;4093;53.470;9.832;2023-04-24T06:35:47;3.38;;;2.10;;
8100;SDS011;4093;53.470;9.832;2023-04-24T06:38:14;2.38;;;2.17;;
8100;SDS011;4093;53.470;9.832;2023-04-24T06:40:43;2.58;;;2.17;;
8100;SDS011;4093;53.470;9.832;2023-04-24T06:43:11;2.03;;;1.92;;
8100;SDS011;4093;53.470;9.832;2023-04-24T06:45:38;2.97;;;2.67;;
8100;SDS011;4093;53.470;9.832;2023-04-24T06:48:06;3.28;;;2.80;;
8100;SDS011;4093;53.470;9.832;2023-04-24T06:50:34;2.38;;;2.17;;
8100;SDS011;4093;53.470;9.832;2023-04-24T06:53:03;3.15;;;2.90;;
8100;SDS011;4093;53.470;9.832;2023-04-24T06:55:31;2.70;;;2.40;;
8100;SDS011;4093;53.470;9.832;2023-04-24T06:57:59;2.38;;;2.17;;
8100;SDS011;4093;53.470;9.832;2023-04-24T07:00:26;2.65;;;2.40;;
8100;SDS011;4093;53.470;9.832;2023-04-24T07:02:55;2.85;;;2.65;;
8100;SDS011;4093;53.470;9.832;2023-04-24T07:05:24;2.92;;;2.72;;
8100;SDS011;4093;53.470;9.832;2023-04-24T07:07:52;2.40;;;2.20;;
8100;SDS011;4093;53.470;9.832;2023-04-24T07:10:21;3.53;;;3.28;;
8100;SDS011;4093;53.470;9.832;2023-04-24T07:12:49;3.40;;;3.10;;
8100;SDS011;4093;53.470;9.832;2023-04-24T07:15:17;3.25;;;3.05;;
8100;SDS011;4093;53.470;9.832;2023-04-24T07:17:45;3.05;;;2.85;;
8100;SDS011;4093;53.470;9.832;2023-04-24T07:20:12;4.97;;;3.53;;
8100;SDS011;4093;53.470;9.832;2023-04-24T07:22:41;3.30;;;3.00;;
8100;SDS011;4093;53.470;9.832;2023-04-24T07:25:09;3.92;;;3.13;;
8100;SDS011;4093;53.470;9.832;2023-04-24T07:27:38;3.78;;;3.30;;
8100;SDS011;4093;53.470;9.832;2023-04-24T07:30:06;4.07;;;3.78;;
8100;SDS011;4093;53.470;9.832;2023-04-24T07:32:34;4.68;;;3.97;;
8100;SDS011;4093;53.470;9.832;2023-04-24T07:35:02;4.68;;;4.28;;
8100;SDS011;4093;53.470;9.832;2023-04-24T07:37:30;5.57;;;4.93;;
8100;SDS011;4093;53.470;9.832;2023-04-24T07:39:58;5.05;;;4.60;;
8100;SDS011;4093;53.470;9.832;2023-04-24T07:42:25;5.20;;;4.70;;
8100;SDS011;4093;53.470;9.832;2023-04-24T07:44:54;5.63;;;4.93;;
8100;SDS011;4093;53.470;9.832;2023-04-24T07:47:22;5.63;;;5.13;;
8100;SDS011;4093;53.470;9.832;2023-04-24T07:49:50;6.28;;;5.78;;
8100;SDS011;4093;53.470;9.832;2023-04-24T07:52:17;5.90;;;5.20;;
8100;SDS011;4093;53.470;9.832;2023-04-24T07:54:45;6.43;;;5.60;;
8100;SDS011;4093;53.470;9.832;2023-04-24T07:57:13;5.43;;;5.03;;
8100;SDS011;4093;53.470;9.832;2023-04-24T07:59:41;6.03;;;5.47;;
8100;SDS011;4093;53.470;9.832;2023-04-24T08:02:10;6.18;;;5.68;;
8100;SDS011;4093;53.470;9.832;2023-04-24T08:04:38;5.82;;;5.32;;
8100;SDS011;4093;53.470;9.832;2023-04-24T08:07:06;5.95;;;5.45;;
8100;SDS011;4093;53.470;9.832;2023-04-24T08:09:34;5.90;;;5.30;;
8100;SDS011;4093;53.470;9.832;2023-04-24T08:12:01;6.18;;;5.70;;
8100;SDS011;4093;53.470;9.832;2023-04-24T08:14:29;6.97;;;6.28;;
8100;SDS011;4093;53.470;9.832;2023-04-24T08:16:57;6.20;;;5.70;;
8100;SDS011;4093;53.470;9.832;2023-04-24T08:19:27;6.43;;;5.82;;
8100;SDS011;4093;53.470;9.832;2023-04-24T08:21:55;6.05;;;5.45;;
8100;SDS011;4093;53.470;9.832;2023-04-24T08:24:23;6.90;;;6.20;;
8100;SDS011;4093;53.470;9.832;2023-04-24T08:26:51;6.43;;;5.87;;
8100;SDS011;4093;53.470;9.832;2023-04-24T08:29:20;6.78;;;6.13;;
8100;SDS011;4093;53.470;9.832;2023-04-24T08:31:48;7.90;;;7.20;;
8100;SDS011;4093;53.470;9.832;2023-04-24T08:34:15;9.20;;;6.40;;
8100;SDS011;4093;53.470;9.832;2023-04-24T08:36:44;7.30;;;6.60;;
8100;SDS011;4093;53.470;9.832;2023-04-24T08:39:13;7.93;;;7.17;;
8100;SDS011;4093;53.470;9.832;2023-04-24T08:41:41;8.73;;;7.33;;
8100;SDS011;4093;53.470;9.832;2023-04-24T08:44:11;7.53;;;6.83;;
8100;SDS011;4093;53.470;9.832;2023-04-24T08:46:42;7.93;;;7.23;;
8100;SDS011;4093;53.470;9.832;2023-04-24T08:49:12;8.03;;;7.23;;
8100;SDS011;4093;53.470;9.832;2023-04-24T08:51:42;7.40;;;6.70;;
8100;SDS011;4093;53.470;9.832;2023-04-24T08:54:15;8.50;;;6.67;;
8100;SDS011;4093;53.470;9.832;2023-04-24T08:56:43;6.80;;;6.20;;
8100;SDS011;4093;53.470;9.832;2023-04-24T08:59:12;7.00;;;6.40;;
8100;SDS011;4093;53.470;9.832;2023-04-24T09:01:40;7.00;;;6.30;;
8100;SDS011;4093;53.470;9.832;2023-04-24T09:04:09;6.67;;;6.07;;
8100;SDS011;4093;53.470;9.832;2023-04-24T09:06:39;6.83;;;6.13;;
8100;SDS011;4093;53.470;9.832;2023-04-24T09:09:08;8.10;;;6.50;;
8100;SDS011;4093;53.470;9.832;2023-04-24T09:11:39;7.43;;;6.30;;
8100;SDS011;4093;53.470;9.832;2023-04-24T09:14:07;6.73;;;5.97;;
8100;SDS011;4093;53.470;9.832;2023-04-24T09:16:37;7.67;;;6.40;;
8100;SDS011;4093;53.470;9.832;2023-04-24T09:19:05;7.40;;;6.37;;
8100;SDS011;4093;53.470;9.832;2023-04-24T09:21:32;6.97;;;6.27;;
8100;SDS011;4093;53.470;9.832;2023-04-24T09:24:02;7.80;;;6.97;;
8100;SDS011;4093;53.470;9.832;2023-04-24T09:26:31;8.13;;;7.43;;
8100;SDS011;4093;53.470;9.832;2023-04-24T09:29:01;7.63;;;6.77;;
8100;SDS011;4093;53.470;9.832;2023-04-24T09:31:30;8.37;;;7.57;;
8100;SDS011;4093;53.470;9.832;2023-04-24T09:33:59;10.27;;;7.57;;
8100;SDS011;4093;53.470;9.832;2023-04-24T09:37:12;9.10;;;8.20;;
8100;SDS011;4093;53.470;9.832;2023-04-24T09:40:07;8.87;;;7.97;;
8100;SDS011;4093;53.470;9.832;2023-04-24T09:42:36;8.83;;;8.03;;
8100;SDS011;4093;53.470;9.832;2023-04-24T09:45:04;7.70;;;6.90;;
8100;SDS011;4093;53.470;9.832;2023-04-24T09:47:41;9.60;;;8.47;;
8100;SDS011;4093;53.470;9.832;2023-04-24T09:50:10;9.40;;;8.50;;
8100;SDS011;4093;53.470;9.832;2023-04-24T09:52:41;9.03;;;8.23;;
8100;SDS011;4093;53.470;9.832;2023-04-24T09:55:16;10.50;;;8.03;;
8100;SDS011;4093;53.470;9.832;2023-04-24T09:57:47;9.90;;;8.90;;
8100;SDS011;4093;53.470;9.832;2023-04-24T10:00:17;13.20;;;10.13;;
8100;SDS011;4093;53.470;9.832;2023-04-24T10:02:49;10.00;;;9.00;;
8100;SDS011;4093;53.470;9.832;2023-04-24T10:05:19;11.10;;;9.90;;
8100;SDS011;4093;53.470;9.832;2023-04-24T10:07:52;10.90;;;9.83;;
8100;SDS011;4093;53.470;9.832;2023-04-24T10:10:23;11.30;;;10.10;;
8100;SDS011;4093;53.470;9.832;2023-04-24T10:12:51;12.23;;;10.27;;
8100;SDS011;4093;53.470;9.832;2023-04-24T10:15:20;16.33;;;11.40;;
8100;SDS011;4093;53.470;9.832;2023-04-24T10:17:48;14.07;;;11.20;;
8100;SDS011;4093;53.470;9.832;2023-04-24T10:20:19;13.90;;;11.77;;
8100;SDS011;4093;53.470;9.832;2023-04-24T10:22:47;14.43;;;10.83;;
8100;SDS011;4093;53.470;9.832;2023-04-24T10:25:19;15.13;;;11.85;;
8100;SDS011;4093;53.470;9.832;2023-04-24T10:27:49;14.65;;;11.55;;
8100;SDS011;4093;53.470;9.832;2023-04-24T10:30:17;11.35;;;10.15;;
8100;SDS011;4093;53.470;9.832;2023-04-24T10:32:46;12.20;;;10.90;;
8100;SDS011;4093;53.470;9.832;2023-04-24T10:35:15;10.93;;;9.83;;
8100;SDS011;4093;53.470;9.832;2023-04-24T10:37:48;10.73;;;9.63;;
8100;SDS011;4093;53.470;9.832;2023-04-24T10:40:19;12.33;;;11.07;;
8100;SDS011;4093;53.470;9.832;2023-04-24T10:42:53;12.33;;;10.73;;
8100;SDS011;4093;53.470;9.832;2023-04-24T10:45:24;11.60;;;10.40;;
8100;SDS011;4093;53.470;9.832;2023-04-24T10:47:53;11.03;;;9.93;;
8100;SDS011;4093;53.470;9.832;2023-04-24T10:50:25;10.90;;;9.80;;
8100;SDS011;4093;53.470;9.832;2023-04-24T10:52:55;11.80;;;10.60;;
8100;SDS011;4093;53.470;9.832;2023-04-24T10:55:41;11.60;;;10.40;;
8100;SDS011;4093;53.470;9.832;2023-04-24T10:58:10;11.23;;;10.03;;
8100;SDS011;4093;53.470;9.832;2023-04-24T11:00:39;11.83;;;10.47;;
8100;SDS011;4093;53.470;9.832;2023-04-24T11:03:09;11.37;;;9.60;;
8100;SDS011;4093;53.470;9.832;2023-04-24T11:05:52;14.53;;;10.03;;
8100;SDS011;4093;53.470;9.832;2023-04-24T11:08:29;10.80;;;9.70;;
8100;SDS011;4093;53.470;9.832;2023-04-24T11:11:06;11.07;;;9.73;;
8100;SDS011;4093;53.470;9.832;2023-04-24T11:16:30;11.17;;;10.07;;
8100;SDS011;4093;53.470;9.832;2023-04-24T11:19:00;10.97;;;9.73;;
8100;SDS011;4093;53.470;9.832;2023-04-24T11:24:30;11.43;;;10.17;;
8100;SDS011;4093;53.470;9.832;2023-04-24T11:27:05;12.20;;;10.97;;
8100;SDS011;4093;53.470;9.832;2023-04-24T11:29:43;12.07;;;10.20;;
8100;SDS011;4093;53.470;9.832;2023-04-24T11:32:23;12.20;;;9.80;;
8100;SDS011;4093;53.470;9.832;2023-04-24T11:34:53;10.10;;;9.00;;
8100;SDS011;4093;53.470;9.832;2023-04-24T11:37:22;10.23;;;8.40;;
8100;SDS011;4093;53.470;9.832;2023-04-24T11:39:51;9.53;;;8.37;;
8100;SDS011;4093;53.470;9.832;2023-04-24T11:44:52;9.17;;;7.57;;
8100;SDS011;4093;53.470;9.832;2023-04-24T11:47:27;8.07;;;7.27;;
8100;SDS011;4093;53.470;9.832;2023-04-24T11:49:55;7.33;;;6.63;;
8100;SDS011;4093;53.470;9.832;2023-04-24T11:52:23;8.77;;;7.90;;
8100;SDS011;4093;53.470;9.832;2023-04-24T11:54:51;8.43;;;7.63;;
8100;SDS011;4093;53.470;9.832;2023-04-24T11:57:19;8.50;;;7.17;;
8100;SDS011;4093;53.470;9.832;2023-04-24T11:59:49;8.90;;;8.00;;
8100;SDS011;4093;53.470;9.832;2023-04-24T12:02:21;7.17;;;6.47;;
8100;SDS011;4093;53.470;9.832;2023-04-24T12:04:49;8.50;;;7.13;;
8100;SDS011;4093;53.470;9.832;2023-04-24T12:07:18;8.20;;;7.40;;
8100;SDS011;4093;53.470;9.832;2023-04-24T12:09:46;8.10;;;7.30;;
8100;SDS011;4093;53.470;9.832;2023-04-24T12:12:18;8.40;;;7.60;;
8100;SDS011;4093;53.470;9.832;2023-04-24T12:14:51;8.60;;;7.83;;
8100;SDS011;4093;53.470;9.832;2023-04-24T12:17:24;8.43;;;7.60;;
8100;SDS011;4093;53.470;9.832;2023-04-24T12:19:57;8.40;;;7.63;;
8100;SDS011;4093;53.470;9.832;2023-04-24T12:22:27;9.87;;;8.57;;
8100;SDS011;4093;53.470;9.832;2023-04-24T12:24:58;9.27;;;8.20;;
8100;SDS011;4093;53.470;9.832;2023-04-24T12:27:31;9.80;;;8.60;;
8100;SDS011;4093;53.470;9.832;2023-04-24T12:30:02;9.23;;;8.27;;
8100;SDS011;4093;53.470;9.832;2023-04-24T12:32:31;8.40;;;7.53;;
8100;SDS011;4093;53.470;9.832;2023-04-24T12:34:59;9.57;;;8.57;;
8100;SDS011;4093;53.470;9.832;2023-04-24T12:37:32;8.63;;;7.83;;
8100;SDS011;4093;53.470;9.832;2023-04-24T12:40:03;9.33;;;8.33;;
8100;SDS011;4093;53.470;9.832;2023-04-24T12:42:33;8.23;;;7.27;;
8100;SDS011;4093;53.470;9.832;2023-04-24T12:45:04;9.17;;;7.33;;
8100;SDS011;4093;53.470;9.832;2023-04-24T12:47:34;7.43;;;6.70;;
8100;SDS011;4093;53.470;9.832;2023-04-24T12:50:03;7.70;;;6.63;;
8100;SDS011;4093;53.470;9.832;2023-04-24T12:52:32;6.90;;;6.30;;
8100;SDS011;4093;53.470;9.832;2023-04-24T12:55:00;8.13;;;6.43;;
8100;SDS011;4093;53.470;9.832;2023-04-24T12:57:28;6.77;;;6.10;;
8100;SDS011;4093;53.470;9.832;2023-04-24T12:59:57;6.67;;;6.07;;
8100;SDS011;4093;53.470;9.832;2023-04-24T13:02:28;7.87;;;6.30;;
8100;SDS011;4093;53.470;9.832;2023-04-24T13:04:57;7.10;;;6.03;;
8100;SDS011;4093;53.470;9.832;2023-04-24T13:07:26;6.87;;;6.27;;
8100;SDS011;4093;53.470;9.832;2023-04-24T13:09:55;7.50;;;6.90;;
8100;SDS011;4093;53.470;9.832;2023-04-24T13:12:23;7.17;;;6.47;;
8100;SDS011;4093;53.470;9.832;2023-04-24T13:14:52;7.13;;;6.50;;
8100;SDS011;4093;53.470;9.832;2023-04-24T13:17:20;6.87;;;6.27;;
8100;SDS011;4093;53.470;9.832;2023-04-24T13:19:50;6.97;;;6.37;;
8100;SDS011;4093;53.470;9.832;2023-04-24T13:22:18;7.03;;;6.43;;
8100;SDS011;4093;53.470;9.832;2023-04-24T13:24:47;6.17;;;5.57;;
8100;SDS011;4093;53.470;9.832;2023-04-24T13:27:15;6.80;;;6.13;;
8100;SDS011;4093;53.470;9.832;2023-04-24T13:29:44;6.40;;;5.80;;
8100;SDS011;4093;53.470;9.832;2023-04-24T13:32:12;7.30;;;6.47;;
8100;SDS011;4093;53.470;9.832;2023-04-24T13:34:39;6.73;;;6.07;;
8100;SDS011;4093;53.470;9.832;2023-04-24T13:37:08;6.67;;;6.00;;
8100;SDS011;4093;53.470;9.832;2023-04-24T13:39:36;6.03;;;5.53;;
8100;SDS011;4093;53.470;9.832;2023-04-24T13:42:04;7.07;;;6.47;;
8100;SDS011;4093;53.470;9.832;2023-04-24T13:44:31;5.80;;;5.30;;
8100;SDS011;4093;53.470;9.832;2023-04-24T13:46:59;6.37;;;5.77;;
8100;SDS011;4093;53.470;9.832;2023-04-24T13:49:27;6.97;;;6.37;;
8100;SDS011;4093;53.470;9.832;2023-04-24T13:51:55;5.90;;;5.40;;
8100;SDS011;4093;53.470;9.832;2023-04-24T13:54:24;6.20;;;5.67;;
8100;SDS011;4093;53.470;9.832;2023-04-24T13:56:52;5.77;;;5.27;;
8100;SDS011;4093;53.470;9.832;2023-04-24T13:59:20;6.30;;;5.80;;
8100;SDS011;4093;53.470;9.832;2023-04-24T14:01:48;6.63;;;6.03;;
8100;SDS011;4093;53.470;9.832;2023-04-24T14:04:16;6.67;;;6.17;;
8100;SDS011;4093;53.470;9.832;2023-04-24T14:06:44;6.57;;;5.97;;
8100;SDS011;4093;53.470;9.832;2023-04-24T14:09:11;7.03;;;6.43;;
8100;SDS011;4093;53.470;9.832;2023-04-24T14:11:41;6.50;;;5.90;;
8100;SDS011;4093;53.470;9.832;2023-04-24T14:14:08;6.50;;;5.90;;
8100;SDS011;4093;53.470;9.832;2023-04-24T14:16:36;6.97;;;5.73;;
8100;SDS011;4093;53.470;9.832;2023-04-24T14:19:04;6.80;;;6.10;;
8100;SDS011;4093;53.470;9.832;2023-04-24T14:21:32;6.70;;;6.17;;
8100;SDS011;4093;53.470;9.832;2023-04-24T14:24:00;6.90;;;6.30;;
8100;SDS011;4093;53.470;9.832;2023-04-24T14:26:28;7.93;;;6.80;;
8100;SDS011;4093;53.470;9.832;2023-04-24T14:28:57;7.23;;;6.63;;
8100;SDS011;4093;53.470;9.832;2023-04-24T14:31:40;8.33;;;7.40;;
8100;SDS011;4093;53.470;9.832;2023-04-24T14:34:08;7.97;;;7.27;;
8100;SDS011;4093;53.470;9.832;2023-04-24T14:36:35;8.57;;;7.70;;
8100;SDS011;4093;53.470;9.832;2023-04-24T14:39:04;7.90;;;7.20;;
8100;SDS011;4093;53.470;9.832;2023-04-24T14:41:33;8.63;;;7.73;;
8100;SDS011;4093;53.470;9.832;2023-04-24T14:44:03;8.20;;;7.27;;
8100;SDS011;4093;53.470;9.832;2023-04-24T14:46:31;8.13;;;7.33;;
8100;SDS011;4093;53.470;9.832;2023-04-24T14:48:59;7.83;;;7.13;;
8100;SDS011;4093;53.470;9.832;2023-04-24T14:51:27;7.03;;;6.43;;
8100;SDS011;4093;53.470;9.832;2023-04-24T14:53:55;7.33;;;6.73;;
8100;SDS011;4093;53.470;9.832;2023-04-24T14:56:23;6.70;;;6.10;;
8100;SDS011;4093;53.470;9.832;2023-04-24T14:58:51;7.70;;;7.00;;
8100;SDS011;4093;53.470;9.832;2023-04-24T15:01:20;8.27;;;7.53;;
8100;SDS011;4093;53.470;9.832;2023-04-24T15:03:48;9.40;;;7.60;;
8100;SDS011;4093;53.470;9.832;2023-04-24T15:06:17;8.40;;;7.60;;
8100;SDS011;4093;53.470;9.832;2023-04-24T15:08:46;7.47;;;6.73;;
8100;SDS011;4093;53.470;9.832;2023-04-24T15:11:16;6.03;;;5.50;;
8100;SDS011;4093;53.470;9.832;2023-04-24T15:13:44;4.73;;;4.30;;
8100;SDS011;4093;53.470;9.832;2023-04-24T15:16:12;4.17;;;3.40;;
8100;SDS011;4093;53.470;9.832;2023-04-24T15:18:42;3.43;;;3.13;;
8100;SDS011;4093;53.470;9.832;2023-04-24T15:21:09;4.83;;;3.20;;
8100;SDS011;4093;53.470;9.832;2023-04-24T15:23:38;5.23;;;3.63;;
8100;SDS011;4093;53.470;9.832;2023-04-24T15:26:06;3.37;;;3.07;;
8100;SDS011;4093;53.470;9.832;2023-04-24T15:28:34;3.90;;;3.60;;
8100;SDS011;4093;53.470;9.832;2023-04-24T15:31:01;4.50;;;3.90;;